sensor_id;sensor_type;location;lat;lon;timestamp;temperature;humidity
15259;DHT22;34462;51.368;12.364;2022-08-01T00:01:30;20.10;99.90
15259;DHT22;34462;51.368;12.364;2022-08-01T00:03:58;20.10;99.90
15259;DHT22;34462;51.368;12.364;2022-08-01T00:06:26;20.20;99.90
15259;DHT22;34462;51.368;12.364;2022-08-01T00:08:55;20.20;99.90
15259;DHT22;34462;51.368;12.364;2022-08-01T00:11:24;20.20;99.90
15259;DHT22;34462;51.368;12.364;2022-08-01T00:13:53;20.20;99.90
15259;DHT22;34462;51.368;12.364;2022-08-01T00:16:21;20.20;99.90
15259;DHT22;34462;51.368;12.364;2022-08-01T00:18:50;20.10;99.90
15259;DHT22;34462;51.368;12.364;2022-08-01T00:21:19;20.20;99.90
15259;DHT22;34462;51.368;12.364;2022-08-01T00:23:47;20.20;99.90
15259;DHT22;34462;51.368;12.364;2022-08-01T00:26:15;20.20;99.90
15259;DHT22;34462;51.368;12.364;2022-08-01T00:28:45;20.20;99.90
15259;DHT22;34462;51.368;12.364;2022-08-01T00:31:13;20.20;99.90
15259;DHT22;34462;51.368;12.364;2022-08-01T00:33:41;20.20;99.90
15259;DHT22;34462;51.368;12.364;2022-08-01T00:36:09;20.20;99.90
15259;DHT22;34462;51.368;12.364;2022-08-01T00:38:37;20.20;99.90
15259;DHT22;34462;51.368;12.364;2022-08-01T00:41:05;20.20;99.90
15259;DHT22;34462;51.368;12.364;2022-08-01T00:43:34;20.20;99.90
15259;DHT22;34462;51.368;12.364;2022-08-01T00:46:03;20.30;99.90
15259;DHT22;34462;51.368;12.364;2022-08-01T00:48:31;20.30;99.90
15259;DHT22;34462;51.368;12.364;2022-08-01T00:50:59;20.30;99.90
15259;DHT22;34462;51.368;12.364;2022-08-01T00:53:28;20.20;99.90
15259;DHT22;34462;51.368;12.364;2022-08-01T00:56:16;20.10;99.90
15259;DHT22;34462;51.368;12.364;2022-08-01T00:58:45;20.20;99.90
15259;DHT22;34462;51.368;12.364;2022-08-01T01:01:17;20.10;99.90
15259;DHT22;34462;51.368;12.364;2022-08-01T01:03:48;20.10;99.90
15259;DHT22;34462;51.368;12.364;2022-08-01T01:06:31;20.10;99.90
15259;DHT22;34462;51.368;12.364;2022-08-01T01:09:17;20.00;99.90
15259;DHT22;34462;51.368;12.364;2022-08-01T01:12:02;20.00;99.90
15259;DHT22;34462;51.368;12.364;2022-08-01T01:14:41;19.90;99.90
15259;DHT22;34462;51.368;12.364;2022-08-01T01:17:16;19.90;99.90
15259;DHT22;34462;51.368;12.364;2022-08-01T01:20:12;20.00;99.90
15259;DHT22;34462;51.368;12.364;2022-08-01T01:26:00;20.10;99.90
15259;DHT22;34462;51.368;12.364;2022-08-01T01:28:56;20.10;99.90
15259;DHT22;34462;51.368;12.364;2022-08-01T01:31:31;20.10;99.90
15259;DHT22;34462;51.368;12.364;2022-08-01T01:34:04;20.00;99.90
15259;DHT22;34462;51.368;12.364;2022-08-01T01:36:35;20.00;99.90
15259;DHT22;34462;51.368;12.364;2022-08-01T01:39:06;20.00;99.90
15259;DHT22;34462;51.368;12.364;2022-08-01T01:41:35;20.00;99.90
15259;DHT22;34462;51.368;12.364;2022-08-01T01:44:06;20.10;99.90
15259;DHT22;34462;51.368;12.364;2022-08-01T01:46:37;20.00;99.90
15259;DHT22;34462;51.368;12.364;2022-08-01T01:49:08;20.10;99.90
15259;DHT22;34462;51.368;12.364;2022-08-01T01:51:38;20.20;99.90
15259;DHT22;34462;51.368;12.364;2022-08-01T01:54:31;20.20;99.90
15259;DHT22;34462;51.368;12.364;2022-08-01T01:57:03;20.20;99.90
15259;DHT22;34462;51.368;12.364;2022-08-01T01:59:36;20.10;99.90
15259;DHT22;34462;51.368;12.364;2022-08-01T02:02:07;20.10;99.90
15259;DHT22;34462;51.368;12.364;2022-08-01T02:04:40;20.10;99.90
15259;DHT22;34462;51.368;12.364;2022-08-01T02:07:12;20.20;99.90
15259;DHT22;34462;51.368;12.364;2022-08-01T02:09:46;20.10;99.90
15259;DHT22;34462;51.368;12.364;2022-08-01T02:12:16;20.10;99.90
15259;DHT22;34462;51.368;12.364;2022-08-01T02:14:50;20.10;99.90
15259;DHT22;34462;51.368;12.364;2022-08-01T02:17:23;20.10;99.90
15259;DHT22;34462;51.368;12.364;2022-08-01T02:19:53;20.00;99.90
15259;DHT22;34462;51.368;12.364;2022-08-01T02:22:29;19.90;99.90
15259;DHT22;34462;51.368;12.364;2022-08-01T02:25:03;19.70;99.90
15259;DHT22;34462;51.368;12.364;2022-08-01T02:27:41;19.70;99.90
15259;DHT22;34462;51.368;12.364;2022-08-01T02:30:15;19.70;99.90
15259;DHT22;34462;51.368;12.364;2022-08-01T02:32:47;19.70;99.90
15259;DHT22;34462;51.368;12.364;2022-08-01T02:35:22;19.80;99.90
15259;DHT22;34462;51.368;12.364;2022-08-01T02:37:57;19.70;99.90
15259;DHT22;34462;51.368;12.364;2022-08-01T02:40:27;19.70;99.90
15259;DHT22;34462;51.368;12.364;2022-08-01T02:42:59;19.60;99.90
15259;DHT22;34462;51.368;12.364;2022-08-01T02:45:33;19.60;99.90
15259;DHT22;34462;51.368;12.364;2022-08-01T02:48:09;19.60;99.90
15259;DHT22;34462;51.368;12.364;2022-08-01T02:50:42;19.50;99.90
15259;DHT22;34462;51.368;12.364;2022-08-01T02:53:18;19.50;99.90
15259;DHT22;34462;51.368;12.364;2022-08-01T02:56:08;19.40;99.90
15259;DHT22;34462;51.368;12.364;2022-08-01T02:58:38;19.50;99.90
15259;DHT22;34462;51.368;12.364;2022-08-01T03:01:10;19.50;99.90
15259;DHT22;34462;51.368;12.364;2022-08-01T03:03:41;19.60;99.90
15259;DHT22;34462;51.368;12.364;2022-08-01T03:06:11;19.60;99.90
15259;DHT22;34462;51.368;12.364;2022-08-01T03:08:41;19.60;99.90
15259;DHT22;34462;51.368;12.364;2022-08-01T03:11:12;19.60;99.90
15259;DHT22;34462;51.368;12.364;2022-08-01T03:13:42;19.70;99.90
15259;DHT22;34462;51.368;12.364;2022-08-01T03:16:15;19.60;99.90
15259;DHT22;34462;51.368;12.364;2022-08-01T03:18:46;19.70;99.90
15259;DHT22;34462;51.368;12.364;2022-08-01T03:21:17;19.80;99.90
15259;DHT22;34462;51.368;12.364;2022-08-01T03:23:48;19.70;99.90
15259;DHT22;34462;51.368;12.364;2022-08-01T03:26:21;19.80;99.90
15259;DHT22;34462;51.368;12.364;2022-08-01T03:28:51;19.80;99.90
15259;DHT22;34462;51.368;12.364;2022-08-01T03:31:25;19.70;99.90
15259;DHT22;34462;51.368;12.364;2022-08-01T03:33:54;19.70;99.90
15259;DHT22;34462;51.368;12.364;2022-08-01T03:36:25;19.80;99.90
15259;DHT22;34462;51.368;12.364;2022-08-01T03:38:58;19.80;99.90
15259;DHT22;34462;51.368;12.364;2022-08-01T03:41:32;19.80;99.90
15259;DHT22;34462;51.368;12.364;2022-08-01T03:44:09;19.80;99.90
15259;DHT22;34462;51.368;12.364;2022-08-01T03:46:45;19.80;99.90
15259;DHT22;34462;51.368;12.364;2022-08-01T03:49:19;19.80;99.90
15259;DHT22;34462;51.368;12.364;2022-08-01T03:51:51;19.80;99.90
15259;DHT22;34462;51.368;12.364;2022-08-01T03:54:21;19.80;99.90
15259;DHT22;34462;51.368;12.364;2022-08-01T03:56:52;19.80;99.90
15259;DHT22;34462;51.368;12.364;2022-08-01T03:59:21;19.80;99.90
15259;DHT22;34462;51.368;12.364;2022-08-01T04:01:52;19.80;99.90
15259;DHT22;34462;51.368;12.364;2022-08-01T04:04:21;19.80;99.90
15259;DHT22;34462;51.368;12.364;2022-08-01T04:06:50;19.90;99.90
15259;DHT22;34462;51.368;12.364;2022-08-01T04:09:20;19.80;99.90
15259;DHT22;34462;51.368;12.364;2022-08-01T04:11:49;19.80;99.90
15259;DHT22;34462;51.368;12.364;2022-08-01T04:14:17;19.80;99.90
15259;DHT22;34462;51.368;12.364;2022-08-01T04:16:46;19.90;99.90
15259;DHT22;34462;51.368;12.364;2022-08-01T04:19:15;19.90;99.90
15259;DHT22;34462;51.368;12.364;2022-08-01T04:21:43;20.00;99.90
15259;DHT22;34462;51.368;12.364;2022-08-01T04:24:13;20.00;99.90
15259;DHT22;34462;51.368;12.364;2022-08-01T04:26:46;20.00;99.90
15259;DHT22;34462;51.368;12.364;2022-08-01T04:29:19;20.10;99.90
15259;DHT22;34462;51.368;12.364;2022-08-01T04:31:50;20.20;99.90
15259;DHT22;34462;51.368;12.364;2022-08-01T04:34:25;20.20;99.90
15259;DHT22;34462;51.368;12.364;2022-08-01T04:36:59;20.20;99.90
15259;DHT22;34462;51.368;12.364;2022-08-01T04:39:31;20.20;99.90
15259;DHT22;34462;51.368;12.364;2022-08-01T04:42:16;20.10;99.90
15259;DHT22;34462;51.368;12.364;2022-08-01T04:44:53;20.10;99.90
15259;DHT22;34462;51.368;12.364;2022-08-01T04:47:22;20.20;99.90
15259;DHT22;34462;51.368;12.364;2022-08-01T04:49:52;20.20;99.90
15259;DHT22;34462;51.368;12.364;2022-08-01T04:52:23;20.10;99.90
15259;DHT22;34462;51.368;12.364;2022-08-01T04:54:59;20.20;99.90
15259;DHT22;34462;51.368;12.364;2022-08-01T04:57:28;20.10;99.90
15259;DHT22;34462;51.368;12.364;2022-08-01T04:59:57;20.10;99.90
15259;DHT22;34462;51.368;12.364;2022-08-01T05:02:25;20.10;99.90
15259;DHT22;34462;51.368;12.364;2022-08-01T05:04:57;20.10;99.90
15259;DHT22;34462;51.368;12.364;2022-08-01T05:07:25;20.10;99.90
15259;DHT22;34462;51.368;12.364;2022-08-01T05:09:53;20.10;99.90
15259;DHT22;34462;51.368;12.364;2022-08-01T05:12:21;20.20;99.90
15259;DHT22;34462;51.368;12.364;2022-08-01T05:14:49;20.20;99.90
15259;DHT22;34462;51.368;12.364;2022-08-01T05:17:17;20.30;99.90
15259;DHT22;34462;51.368;12.364;2022-08-01T05:19:45;20.40;99.90
15259;DHT22;34462;51.368;12.364;2022-08-01T05:22:15;20.50;99.90
15259;DHT22;34462;51.368;12.364;2022-08-01T05:24:45;20.60;99.90
15259;DHT22;34462;51.368;12.364;2022-08-01T05:27:15;20.70;99.90
15259;DHT22;34462;51.368;12.364;2022-08-01T05:29:45;20.80;99.90
15259;DHT22;34462;51.368;12.364;2022-08-01T05:32:13;20.90;99.90
15259;DHT22;34462;51.368;12.364;2022-08-01T05:34:41;21.00;99.90
15259;DHT22;34462;51.368;12.364;2022-08-01T05:37:09;21.10;99.90
15259;DHT22;34462;51.368;12.364;2022-08-01T05:39:39;21.40;99.90
15259;DHT22;34462;51.368;12.364;2022-08-01T05:42:07;21.50;99.90
15259;DHT22;34462;51.368;12.364;2022-08-01T05:44:35;21.70;99.90
15259;DHT22;34462;51.368;12.364;2022-08-01T05:47:03;21.80;99.90
15259;DHT22;34462;51.368;12.364;2022-08-01T05:49:31;22.00;99.90
15259;DHT22;34462;51.368;12.364;2022-08-01T05:51:59;22.10;99.90
15259;DHT22;34462;51.368;12.364;2022-08-01T05:54:29;22.30;99.90
15259;DHT22;34462;51.368;12.364;2022-08-01T05:56:59;22.40;99.90
15259;DHT22;34462;51.368;12.364;2022-08-01T05:59:28;22.50;99.90
15259;DHT22;34462;51.368;12.364;2022-08-01T06:01:57;22.50;99.90
15259;DHT22;34462;51.368;12.364;2022-08-01T06:04:25;22.50;99.90
15259;DHT22;34462;51.368;12.364;2022-08-01T06:06:53;22.50;99.90
15259;DHT22;34462;51.368;12.364;2022-08-01T06:09:21;22.50;99.90
15259;DHT22;34462;51.368;12.364;2022-08-01T06:11:49;22.60;99.90
15259;DHT22;34462;51.368;12.364;2022-08-01T06:14:19;22.60;99.90
15259;DHT22;34462;51.368;12.364;2022-08-01T06:16:47;22.80;99.90
15259;DHT22;34462;51.368;12.364;2022-08-01T06:19:15;22.80;99.90
15259;DHT22;34462;51.368;12.364;2022-08-01T06:21:43;22.80;99.90
15259;DHT22;34462;51.368;12.364;2022-08-01T06:24:11;22.90;99.90
15259;DHT22;34462;51.368;12.364;2022-08-01T06:26:39;22.90;99.90
15259;DHT22;34462;51.368;12.364;2022-08-01T06:29:07;22.90;99.90
15259;DHT22;34462;51.368;12.364;2022-08-01T06:31:37;22.80;99.90
15259;DHT22;34462;51.368;12.364;2022-08-01T06:34:05;22.70;99.90
15259;DHT22;34462;51.368;12.364;2022-08-01T06:36:33;22.80;99.90
15259;DHT22;34462;51.368;12.364;2022-08-01T06:39:01;22.80;99.90
15259;DHT22;34462;51.368;12.364;2022-08-01T06:41:29;22.70;99.90
15259;DHT22;34462;51.368;12.364;2022-08-01T06:43:57;22.80;99.90
15259;DHT22;34462;51.368;12.364;2022-08-01T06:46:29;22.90;99.90
15259;DHT22;34462;51.368;12.364;2022-08-01T06:49:00;22.90;99.90
15259;DHT22;34462;51.368;12.364;2022-08-01T06:51:28;22.90;99.90
15259;DHT22;34462;51.368;12.364;2022-08-01T06:53:56;22.90;99.90
15259;DHT22;34462;51.368;12.364;2022-08-01T06:56:24;22.80;99.90
15259;DHT22;34462;51.368;12.364;2022-08-01T06:58:53;22.80;99.90
15259;DHT22;34462;51.368;12.364;2022-08-01T07:01:22;22.70;99.90
15259;DHT22;34462;51.368;12.364;2022-08-01T07:03:51;22.80;99.90
15259;DHT22;34462;51.368;12.364;2022-08-01T07:06:22;22.70;99.90
15259;DHT22;34462;51.368;12.364;2022-08-01T07:08:52;22.80;99.90
15259;DHT22;34462;51.368;12.364;2022-08-01T07:11:21;22.80;99.90
15259;DHT22;34462;51.368;12.364;2022-08-01T07:13:51;22.80;99.90
15259;DHT22;34462;51.368;12.364;2022-08-01T07:16:19;22.80;99.90
15259;DHT22;34462;51.368;12.364;2022-08-01T07:18:47;22.80;99.90
15259;DHT22;34462;51.368;12.364;2022-08-01T07:21:15;22.80;99.90
15259;DHT22;34462;51.368;12.364;2022-08-01T07:24:05;22.90;99.90
15259;DHT22;34462;51.368;12.364;2022-08-01T07:26:41;23.00;99.90
15259;DHT22;34462;51.368;12.364;2022-08-01T07:29:20;23.10;99.90
15259;DHT22;34462;51.368;12.364;2022-08-01T07:31:49;23.40;99.90
15259;DHT22;34462;51.368;12.364;2022-08-01T07:34:17;23.60;99.90
15259;DHT22;34462;51.368;12.364;2022-08-01T07:36:45;23.80;99.90
15259;DHT22;34462;51.368;12.364;2022-08-01T07:39:15;23.60;99.90
15259;DHT22;34462;51.368;12.364;2022-08-01T07:41:43;23.50;99.90
15259;DHT22;34462;51.368;12.364;2022-08-01T07:44:31;23.30;99.90
15259;DHT22;34462;51.368;12.364;2022-08-01T07:46:59;22.80;99.90
15259;DHT22;34462;51.368;12.364;2022-08-01T07:49:28;22.40;99.90
15259;DHT22;34462;51.368;12.364;2022-08-01T07:51:58;22.00;99.90
15259;DHT22;34462;51.368;12.364;2022-08-01T07:54:31;21.70;99.90
15259;DHT22;34462;51.368;12.364;2022-08-01T07:57:00;21.50;99.90
15259;DHT22;34462;51.368;12.364;2022-08-01T07:59:29;21.40;99.90
15259;DHT22;34462;51.368;12.364;2022-08-01T08:01:58;21.40;99.90
15259;DHT22;34462;51.368;12.364;2022-08-01T08:04:31;21.40;99.90
15259;DHT22;34462;51.368;12.364;2022-08-01T08:07:02;21.40;99.90
15259;DHT22;34462;51.368;12.364;2022-08-01T08:09:32;21.50;99.90
15259;DHT22;34462;51.368;12.364;2022-08-01T08:12:04;21.80;99.90
15259;DHT22;34462;51.368;12.364;2022-08-01T08:14:34;22.00;99.90
15259;DHT22;34462;51.368;12.364;2022-08-01T08:17:08;22.20;99.90
15259;DHT22;34462;51.368;12.364;2022-08-01T08:19:38;22.30;99.90
15259;DHT22;34462;51.368;12.364;2022-08-01T08:22:10;22.20;99.90
15259;DHT22;34462;51.368;12.364;2022-08-01T08:24:39;22.40;99.90
15259;DHT22;34462;51.368;12.364;2022-08-01T08:27:12;22.60;99.90
15259;DHT22;34462;51.368;12.364;2022-08-01T08:29:41;22.70;99.90
15259;DHT22;34462;51.368;12.364;2022-08-01T08:32:10;23.00;99.90
15259;DHT22;34462;51.368;12.364;2022-08-01T08:34:38;23.10;99.90
15259;DHT22;34462;51.368;12.364;2022-08-01T08:37:07;23.20;99.90
15259;DHT22;34462;51.368;12.364;2022-08-01T08:39:35;23.30;99.90
15259;DHT22;34462;51.368;12.364;2022-08-01T08:42:10;23.50;99.90
15259;DHT22;34462;51.368;12.364;2022-08-01T08:44:41;23.30;99.90
15259;DHT22;34462;51.368;12.364;2022-08-01T08:47:13;23.50;99.90
15259;DHT22;34462;51.368;12.364;2022-08-01T08:49:47;23.60;99.90
15259;DHT22;34462;51.368;12.364;2022-08-01T08:52:19;23.70;99.90
15259;DHT22;34462;51.368;12.364;2022-08-01T08:54:49;23.70;99.90
15259;DHT22;34462;51.368;12.364;2022-08-01T08:57:20;23.80;99.90
15259;DHT22;34462;51.368;12.364;2022-08-01T08:59:49;23.80;99.90
15259;DHT22;34462;51.368;12.364;2022-08-01T09:02:20;24.00;99.90
15259;DHT22;34462;51.368;12.364;2022-08-01T09:04:49;24.20;99.90
15259;DHT22;34462;51.368;12.364;2022-08-01T09:07:18;24.30;99.90
15259;DHT22;34462;51.368;12.364;2022-08-01T09:09:46;24.30;99.90
15259;DHT22;34462;51.368;12.364;2022-08-01T09:12:18;24.30;99.90
15259;DHT22;34462;51.368;12.364;2022-08-01T09:14:48;24.00;99.90
15259;DHT22;34462;51.368;12.364;2022-08-01T09:17:20;23.70;99.90
15259;DHT22;34462;51.368;12.364;2022-08-01T09:19:50;23.60;99.90
15259;DHT22;34462;51.368;12.364;2022-08-01T09:22:21;23.70;99.90
15259;DHT22;34462;51.368;12.364;2022-08-01T09:24:59;23.70;99.90
15259;DHT22;34462;51.368;12.364;2022-08-01T09:27:30;23.90;99.90
15259;DHT22;34462;51.368;12.364;2022-08-01T09:30:08;24.20;99.90
15259;DHT22;34462;51.368;12.364;2022-08-01T09:32:56;24.40;99.90
15259;DHT22;34462;51.368;12.364;2022-08-01T09:35:28;24.70;99.90
15259;DHT22;34462;51.368;12.364;2022-08-01T09:38:16;24.60;99.90
15259;DHT22;34462;51.368;12.364;2022-08-01T09:40:46;24.60;99.90
15259;DHT22;34462;51.368;12.364;2022-08-01T09:43:18;24.40;99.90
15259;DHT22;34462;51.368;12.364;2022-08-01T09:45:47;24.30;99.90
15259;DHT22;34462;51.368;12.364;2022-08-01T09:48:19;24.30;99.90
15259;DHT22;34462;51.368;12.364;2022-08-01T09:50:54;24.30;99.90
15259;DHT22;34462;51.368;12.364;2022-08-01T09:53:40;24.40;99.90
15259;DHT22;34462;51.368;12.364;2022-08-01T09:56:17;24.70;99.90
15259;DHT22;34462;51.368;12.364;2022-08-01T09:58:54;24.90;99.90
15259;DHT22;34462;51.368;12.364;2022-08-01T10:01:28;24.80;99.90
15259;DHT22;34462;51.368;12.364;2022-08-01T10:04:10;24.60;99.90
15259;DHT22;34462;51.368;12.364;2022-08-01T10:06:42;24.40;99.90
15259;DHT22;34462;51.368;12.364;2022-08-01T10:09:13;24.40;99.90
15259;DHT22;34462;51.368;12.364;2022-08-01T10:11:42;24.60;99.90
15259;DHT22;34462;51.368;12.364;2022-08-01T10:14:12;24.40;99.90
15259;DHT22;34462;51.368;12.364;2022-08-01T10:16:45;24.40;99.90
15259;DHT22;34462;51.368;12.364;2022-08-01T10:19:26;24.30;99.90
15259;DHT22;34462;51.368;12.364;2022-08-01T10:21:58;24.50;99.90
15259;DHT22;34462;51.368;12.364;2022-08-01T10:24:28;24.60;99.90
15259;DHT22;34462;51.368;12.364;2022-08-01T10:27:03;24.80;99.90
15259;DHT22;34462;51.368;12.364;2022-08-01T10:29:40;24.80;99.90
15259;DHT22;34462;51.368;12.364;2022-08-01T10:32:13;24.70;99.90
15259;DHT22;34462;51.368;12.364;2022-08-01T10:34:41;24.60;99.90
15259;DHT22;34462;51.368;12.364;2022-08-01T10:37:13;24.80;99.90
15259;DHT22;34462;51.368;12.364;2022-08-01T10:39:43;24.90;99.90
15259;DHT22;34462;51.368;12.364;2022-08-01T10:42:12;25.00;99.90
15259;DHT22;34462;51.368;12.364;2022-08-01T10:44:43;25.20;99.90
15259;DHT22;34462;51.368;12.364;2022-08-01T10:47:18;25.40;99.90
15259;DHT22;34462;51.368;12.364;2022-08-01T10:50:19;25.60;99.90
15259;DHT22;34462;51.368;12.364;2022-08-01T10:53:13;25.60;99.90
15259;DHT22;34462;51.368;12.364;2022-08-01T10:55:59;25.70;99.90
15259;DHT22;34462;51.368;12.364;2022-08-01T10:58:31;25.90;99.90
15259;DHT22;34462;51.368;12.364;2022-08-01T11:01:19;26.10;99.90
15259;DHT22;34462;51.368;12.364;2022-08-01T11:04:07;26.20;99.90
15259;DHT22;34462;51.368;12.364;2022-08-01T11:07:02;26.30;99.90
15259;DHT22;34462;51.368;12.364;2022-08-01T11:09:40;26.30;99.90
15259;DHT22;34462;51.368;12.364;2022-08-01T11:12:18;26.20;99.90
15259;DHT22;34462;51.368;12.364;2022-08-01T11:15:24;26.10;99.90
15259;DHT22;34462;51.368;12.364;2022-08-01T11:17:58;26.20;99.90
15259;DHT22;34462;51.368;12.364;2022-08-01T11:20:30;26.10;99.90
15259;DHT22;34462;51.368;12.364;2022-08-01T11:23:26;26.00;99.90
15259;DHT22;34462;51.368;12.364;2022-08-01T11:26:20;26.10;99.90
15259;DHT22;34462;51.368;12.364;2022-08-01T11:29:13;26.10;99.90
15259;DHT22;34462;51.368;12.364;2022-08-01T11:31:49;26.20;99.90
15259;DHT22;34462;51.368;12.364;2022-08-01T11:34:20;26.10;99.90
15259;DHT22;34462;51.368;12.364;2022-08-01T11:37:24;26.20;99.90
15259;DHT22;34462;51.368;12.364;2022-08-01T11:40:15;26.20;99.90
15259;DHT22;34462;51.368;12.364;2022-08-01T11:42:45;26.50;99.90
15259;DHT22;34462;51.368;12.364;2022-08-01T11:45:14;26.60;99.90
15259;DHT22;34462;51.368;12.364;2022-08-01T11:47:46;26.40;99.90
15259;DHT22;34462;51.368;12.364;2022-08-01T11:50:34;26.40;99.90
15259;DHT22;34462;51.368;12.364;2022-08-01T11:53:06;26.40;99.90
15259;DHT22;34462;51.368;12.364;2022-08-01T11:55:45;26.10;99.90
15259;DHT22;34462;51.368;12.364;2022-08-01T11:58:21;25.90;99.90
15259;DHT22;34462;51.368;12.364;2022-08-01T12:00:58;25.60;99.90
15259;DHT22;34462;51.368;12.364;2022-08-01T12:03:27;25.80;99.90
15259;DHT22;34462;51.368;12.364;2022-08-01T12:06:01;25.80;99.90
15259;DHT22;34462;51.368;12.364;2022-08-01T12:08:32;26.10;99.90
15259;DHT22;34462;51.368;12.364;2022-08-01T12:11:04;26.10;99.90
15259;DHT22;34462;51.368;12.364;2022-08-01T12:13:39;25.90;99.90
15259;DHT22;34462;51.368;12.364;2022-08-01T12:16:10;25.90;99.90
15259;DHT22;34462;51.368;12.364;2022-08-01T12:18:40;25.90;99.90
15259;DHT22;34462;51.368;12.364;2022-08-01T12:21:10;25.70;99.90
15259;DHT22;34462;51.368;12.364;2022-08-01T12:23:38;25.60;99.90
15259;DHT22;34462;51.368;12.364;2022-08-01T12:26:06;25.50;99.90
15259;DHT22;34462;51.368;12.364;2022-08-01T12:28:54;25.50;99.90
15259;DHT22;34462;51.368;12.364;2022-08-01T12:31:31;25.50;99.90
15259;DHT22;34462;51.368;12.364;2022-08-01T12:34:26;25.40;99.90
15259;DHT22;34462;51.368;12.364;2022-08-01T12:36:58;25.20;99.90
15259;DHT22;34462;51.368;12.364;2022-08-01T12:39:31;25.10;99.90
15259;DHT22;34462;51.368;12.364;2022-08-01T12:42:00;25.10;99.90
15259;DHT22;34462;51.368;12.364;2022-08-01T12:44:29;25.20;99.90
15259;DHT22;34462;51.368;12.364;2022-08-01T12:46:59;25.40;99.90
15259;DHT22;34462;51.368;12.364;2022-08-01T12:49:29;25.40;99.90
15259;DHT22;34462;51.368;12.364;2022-08-01T12:52:00;25.30;99.90
15259;DHT22;34462;51.368;12.364;2022-08-01T12:54:29;25.30;99.90
15259;DHT22;34462;51.368;12.364;2022-08-01T12:56:57;25.40;99.90
15259;DHT22;34462;51.368;12.364;2022-08-01T12:59:27;25.70;99.90
15259;DHT22;34462;51.368;12.364;2022-08-01T13:01:56;25.90;99.90
15259;DHT22;34462;51.368;12.364;2022-08-01T13:04:25;26.10;99.90
15259;DHT22;34462;51.368;12.364;2022-08-01T13:06:54;26.20;99.90
15259;DHT22;34462;51.368;12.364;2022-08-01T13:09:23;26.00;99.90
15259;DHT22;34462;51.368;12.364;2022-08-01T13:11:52;25.90;99.90
15259;DHT22;34462;51.368;12.364;2022-08-01T13:14:30;25.80;99.90
15259;DHT22;34462;51.368;12.364;2022-08-01T13:16:58;25.80;99.90
15259;DHT22;34462;51.368;12.364;2022-08-01T13:19:41;25.70;99.90
15259;DHT22;34462;51.368;12.364;2022-08-01T13:22:10;25.70;99.90
15259;DHT22;34462;51.368;12.364;2022-08-01T13:24:39;25.80;99.90
15259;DHT22;34462;51.368;12.364;2022-08-01T13:27:20;25.80;99.90
15259;DHT22;34462;51.368;12.364;2022-08-01T13:29:50;25.80;99.90
15259;DHT22;34462;51.368;12.364;2022-08-01T13:32:21;25.70;99.90
15259;DHT22;34462;51.368;12.364;2022-08-01T13:35:06;25.70;99.90
15259;DHT22;34462;51.368;12.364;2022-08-01T13:37:35;25.80;99.90
15259;DHT22;34462;51.368;12.364;2022-08-01T13:40:08;26.00;99.90
15259;DHT22;34462;51.368;12.364;2022-08-01T13:42:38;26.10;99.90
15259;DHT22;34462;51.368;12.364;2022-08-01T13:45:07;26.20;99.90
15259;DHT22;34462;51.368;12.364;2022-08-01T13:47:40;26.30;99.90
15259;DHT22;34462;51.368;12.364;2022-08-01T13:50:29;26.40;99.90
15259;DHT22;34462;51.368;12.364;2022-08-01T13:52:57;26.40;99.90
15259;DHT22;34462;51.368;12.364;2022-08-01T13:55:26;26.40;99.90
15259;DHT22;34462;51.368;12.364;2022-08-01T13:58:00;26.50;99.90
15259;DHT22;34462;51.368;12.364;2022-08-01T14:00:29;26.60;99.90
15259;DHT22;34462;51.368;12.364;2022-08-01T14:02:57;26.60;99.90
15259;DHT22;34462;51.368;12.364;2022-08-01T14:05:25;26.50;99.90
15259;DHT22;34462;51.368;12.364;2022-08-01T14:07:53;26.30;99.90
15259;DHT22;34462;51.368;12.364;2022-08-01T14:10:22;26.10;99.90
15259;DHT22;34462;51.368;12.364;2022-08-01T14:12:52;26.00;99.90
15259;DHT22;34462;51.368;12.364;2022-08-01T14:15:22;25.90;99.90
15259;DHT22;34462;51.368;12.364;2022-08-01T14:18:05;26.00;99.90
15259;DHT22;34462;51.368;12.364;2022-08-01T14:20:36;26.00;99.90
15259;DHT22;34462;51.368;12.364;2022-08-01T14:23:05;26.20;99.90
15259;DHT22;34462;51.368;12.364;2022-08-01T14:25:35;26.30;99.90
15259;DHT22;34462;51.368;12.364;2022-08-01T14:28:25;26.40;99.90
15259;DHT22;34462;51.368;12.364;2022-08-01T14:30:54;26.30;99.90
15259;DHT22;34462;51.368;12.364;2022-08-01T14:33:23;26.20;99.90
15259;DHT22;34462;51.368;12.364;2022-08-01T14:35:51;26.10;99.90
15259;DHT22;34462;51.368;12.364;2022-08-01T14:38:39;25.90;99.90
15259;DHT22;34462;51.368;12.364;2022-08-01T14:41:12;25.80;99.90
15259;DHT22;34462;51.368;12.364;2022-08-01T14:43:42;25.70;99.90
15259;DHT22;34462;51.368;12.364;2022-08-01T14:46:11;25.70;99.90
15259;DHT22;34462;51.368;12.364;2022-08-01T14:48:39;25.70;99.90
15259;DHT22;34462;51.368;12.364;2022-08-01T14:51:08;25.70;99.90
15259;DHT22;34462;51.368;12.364;2022-08-01T14:53:36;25.80;99.90
15259;DHT22;34462;51.368;12.364;2022-08-01T14:56:09;25.70;99.90
15259;DHT22;34462;51.368;12.364;2022-08-01T14:58:37;25.60;99.90
15259;DHT22;34462;51.368;12.364;2022-08-01T15:01:06;25.60;99.90
15259;DHT22;34462;51.368;12.364;2022-08-01T15:03:34;25.60;99.90
15259;DHT22;34462;51.368;12.364;2022-08-01T15:06:03;25.50;99.90
15259;DHT22;34462;51.368;12.364;2022-08-01T15:08:33;25.50;99.90
15259;DHT22;34462;51.368;12.364;2022-08-01T15:11:01;25.50;99.90
15259;DHT22;34462;51.368;12.364;2022-08-01T15:13:29;25.40;99.90
15259;DHT22;34462;51.368;12.364;2022-08-01T15:15:57;25.40;99.90
15259;DHT22;34462;51.368;12.364;2022-08-01T15:18:27;25.40;99.90
15259;DHT22;34462;51.368;12.364;2022-08-01T15:20:59;25.30;99.90
15259;DHT22;34462;51.368;12.364;2022-08-01T15:23:27;25.30;99.90
15259;DHT22;34462;51.368;12.364;2022-08-01T15:25:55;25.20;99.90
15259;DHT22;34462;51.368;12.364;2022-08-01T15:28:24;25.20;99.90
15259;DHT22;34462;51.368;12.364;2022-08-01T15:30:52;25.20;99.90
15259;DHT22;34462;51.368;12.364;2022-08-01T15:33:20;25.30;99.90
15259;DHT22;34462;51.368;12.364;2022-08-01T15:35:50;25.30;99.90
15259;DHT22;34462;51.368;12.364;2022-08-01T15:38:18;25.30;99.90
15259;DHT22;34462;51.368;12.364;2022-08-01T15:40:48;25.30;99.90
15259;DHT22;34462;51.368;12.364;2022-08-01T15:43:16;25.30;99.90
15259;DHT22;34462;51.368;12.364;2022-08-01T15:45:44;25.40;99.90
15259;DHT22;34462;51.368;12.364;2022-08-01T15:48:14;25.40;99.90
15259;DHT22;34462;51.368;12.364;2022-08-01T15:50:43;25.30;99.90